sensor_id;sensor_type;location;lat;lon;timestamp;P1;durP1;ratioP1;P2;durP2;ratioP2
50976;SDS011;36992;48.200;12.418;2023-04-25T00:01:53;0.52;;;0.20;;
50976;SDS011;36992;48.200;12.418;2023-04-25T00:04:19;0.75;;;0.20;;
50976;SDS011;36992;48.200;12.418;2023-04-25T00:06:46;1.27;;;0.30;;
50976;SDS011;36992;48.200;12.418;2023-04-25T00:09:13;1.58;;;0.73;;
50976;SDS011;36992;48.200;12.418;2023-04-25T00:11:41;0.45;;;0.15;;
50976;SDS011;36992;48.200;12.418;2023-04-25T00:14:08;1.10;;;0.30;;
50976;SDS011;36992;48.200;12.418;2023-04-25T00:16:35;0.98;;;0.65;;
50976;SDS011;36992;48.200;12.418;2023-04-25T00:19:02;0.77;;;0.30;;
50976;SDS011;36992;48.200;12.418;2023-04-25T00:21:29;1.27;;;0.38;;
50976;SDS011;36992;48.200;12.418;2023-04-25T00:23:56;1.05;;;0.30;;
50976;SDS011;36992;48.200;12.418;2023-04-25T00:26:23;0.68;;;0.30;;
50976;SDS011;36992;48.200;12.418;2023-04-25T00:28:51;1.80;;;0.30;;
50976;SDS011;36992;48.200;12.418;2023-04-25T00:31:17;1.10;;;0.30;;
50976;SDS011;36992;48.200;12.418;2023-04-25T00:33:44;1.00;;;0.30;;
50976;SDS011;36992;48.200;12.418;2023-04-25T00:36:10;0.85;;;0.30;;
50976;SDS011;36992;48.200;12.418;2023-04-25T00:38:37;0.77;;;0.30;;
50976;SDS011;36992;48.200;12.418;2023-04-25T00:41:04;0.77;;;0.25;;
50976;SDS011;36992;48.200;12.418;2023-04-25T00:43:32;0.95;;;0.40;;
50976;SDS011;36992;48.200;12.418;2023-04-25T00:46:00;1.50;;;0.77;;
50976;SDS011;36992;48.200;12.418;2023-04-25T00:48:27;0.82;;;0.40;;
50976;SDS011;36992;48.200;12.418;2023-04-25T00:50:54;1.67;;;0.32;;
50976;SDS011;36992;48.200;12.418;2023-04-25T00:53:23;1.15;;;0.47;;
50976;SDS011;36992;48.200;12.418;2023-04-25T00:55:51;2.00;;;0.35;;
50976;SDS011;36992;48.200;12.418;2023-04-25T00:58:18;1.08;;;0.40;;
50976;SDS011;36992;48.200;12.418;2023-04-25T01:00:45;0.75;;;0.20;;
50976;SDS011;36992;48.200;12.418;2023-04-25T01:03:14;1.05;;;0.30;;
50976;SDS011;36992;48.200;12.418;2023-04-25T01:05:42;1.63;;;0.30;;
50976;SDS011;36992;48.200;12.418;2023-04-25T01:08:09;0.88;;;0.30;;
50976;SDS011;36992;48.200;12.418;2023-04-25T01:10:36;0.98;;;0.28;;
50976;SDS011;36992;48.200;12.418;2023-04-25T01:13:02;2.50;;;0.43;;
50976;SDS011;36992;48.200;12.418;2023-04-25T01:15:29;1.63;;;0.28;;
50976;SDS011;36992;48.200;12.418;2023-04-25T01:17:56;1.02;;;0.30;;
50976;SDS011;36992;48.200;12.418;2023-04-25T01:20:25;1.00;;;0.30;;
50976;SDS011;36992;48.200;12.418;2023-04-25T01:22:54;0.73;;;0.22;;
50976;SDS011;36992;48.200;12.418;2023-04-25T01:25:22;0.60;;;0.25;;
50976;SDS011;36992;48.200;12.418;2023-04-25T01:27:48;1.98;;;0.40;;
50976;SDS011;36992;48.200;12.418;2023-04-25T01:30:15;0.57;;;0.20;;
50976;SDS011;36992;48.200;12.418;2023-04-25T01:32:42;1.40;;;0.30;;
50976;SDS011;36992;48.200;12.418;2023-04-25T01:35:10;1.35;;;0.30;;
50976;SDS011;36992;48.200;12.418;2023-04-25T01:37:37;0.82;;;0.25;;
50976;SDS011;36992;48.200;12.418;2023-04-25T01:40:06;2.17;;;0.20;;
50976;SDS011;36992;48.200;12.418;2023-04-25T01:42:35;0.60;;;0.30;;
50976;SDS011;36992;48.200;12.418;2023-04-25T01:45:03;2.13;;;0.20;;
50976;SDS011;36992;48.200;12.418;2023-04-25T01:47:31;1.10;;;0.30;;
50976;SDS011;36992;48.200;12.418;2023-04-25T01:50:00;1.60;;;0.20;;
50976;SDS011;36992;48.200;12.418;2023-04-25T01:52:26;0.60;;;0.30;;
50976;SDS011;36992;48.200;12.418;2023-04-25T01:54:53;0.98;;;0.35;;
50976;SDS011;36992;48.200;12.418;2023-04-25T01:57:21;0.98;;;0.30;;
50976;SDS011;36992;48.200;12.418;2023-04-25T01:59:48;0.57;;;0.30;;
50976;SDS011;36992;48.200;12.418;2023-04-25T02:02:15;1.30;;;0.30;;
50976;SDS011;36992;48.200;12.418;2023-04-25T02:04:41;2.42;;;0.32;;
50976;SDS011;36992;48.200;12.418;2023-04-25T02:07:08;1.23;;;0.30;;
50976;SDS011;36992;48.200;12.418;2023-04-25T02:09:34;0.85;;;0.57;;
50976;SDS011;36992;48.200;12.418;2023-04-25T02:12:01;0.70;;;0.20;;
50976;SDS011;36992;48.200;12.418;2023-04-25T02:14:29;1.08;;;0.30;;
50976;SDS011;36992;48.200;12.418;2023-04-25T02:16:55;1.02;;;0.38;;
50976;SDS011;36992;48.200;12.418;2023-04-25T02:19:22;0.70;;;0.30;;
50976;SDS011;36992;48.200;12.418;2023-04-25T02:21:48;1.08;;;0.30;;
50976;SDS011;36992;48.200;12.418;2023-04-25T02:24:15;1.05;;;0.32;;
50976;SDS011;36992;48.200;12.418;2023-04-25T02:26:42;1.17;;;0.30;;
50976;SDS011;36992;48.200;12.418;2023-04-25T02:29:09;1.15;;;0.30;;
50976;SDS011;36992;48.200;12.418;2023-04-25T02:31:37;0.77;;;0.35;;
50976;SDS011;36992;48.200;12.418;2023-04-25T02:34:03;1.52;;;0.40;;
50976;SDS011;36992;48.200;12.418;2023-04-25T02:36:30;1.38;;;0.40;;
50976;SDS011;36992;48.200;12.418;2023-04-25T02:38:59;0.80;;;0.22;;
50976;SDS011;36992;48.200;12.418;2023-04-25T02:41:25;0.80;;;0.30;;
50976;SDS011;36992;48.200;12.418;2023-04-25T02:43:52;0.70;;;0.30;;
50976;SDS011;36992;48.200;12.418;2023-04-25T02:46:19;1.42;;;0.38;;
50976;SDS011;36992;48.200;12.418;2023-04-25T02:48:49;3.97;;;0.40;;
50976;SDS011;36992;48.200;12.418;2023-04-25T02:51:15;1.20;;;0.47;;
50976;SDS011;36992;48.200;12.418;2023-04-25T02:53:42;1.73;;;0.30;;
50976;SDS011;36992;48.200;12.418;2023-04-25T02:56:08;1.35;;;0.40;;
50976;SDS011;36992;48.200;12.418;2023-04-25T02:58:35;2.33;;;0.30;;
50976;SDS011;36992;48.200;12.418;2023-04-25T03:01:01;2.50;;;0.43;;
50976;SDS011;36992;48.200;12.418;2023-04-25T03:03:28;0.77;;;0.30;;
50976;SDS011;36992;48.200;12.418;2023-04-25T03:05:56;0.82;;;0.30;;
50976;SDS011;36992;48.200;12.418;2023-04-25T03:08:22;1.02;;;0.30;;
50976;SDS011;36992;48.200;12.418;2023-04-25T03:10:50;2.83;;;0.38;;
50976;SDS011;36992;48.200;12.418;2023-04-25T03:13:18;2.70;;;0.20;;
50976;SDS011;36992;48.200;12.418;2023-04-25T03:15:45;0.88;;;0.20;;
50976;SDS011;36992;48.200;12.418;2023-04-25T03:18:11;1.00;;;0.30;;
50976;SDS011;36992;48.200;12.418;2023-04-25T03:20:38;1.02;;;0.30;;
50976;SDS011;36992;48.200;12.418;2023-04-25T03:23:08;2.20;;;0.30;;
50976;SDS011;36992;48.200;12.418;2023-04-25T03:25:34;1.00;;;0.35;;
50976;SDS011;36992;48.200;12.418;2023-04-25T03:28:01;1.42;;;0.40;;
50976;SDS011;36992;48.200;12.418;2023-04-25T03:30:27;0.80;;;0.30;;
50976;SDS011;36992;48.200;12.418;2023-04-25T03:32:54;0.73;;;0.30;;
50976;SDS011;36992;48.200;12.418;2023-04-25T03:35:20;0.55;;;0.20;;
50976;SDS011;36992;48.200;12.418;2023-04-25T03:37:48;0.98;;;0.20;;
50976;SDS011;36992;48.200;12.418;2023-04-25T03:40:16;1.00;;;0.38;;
50976;SDS011;36992;48.200;12.418;2023-04-25T03:42:43;0.80;;;0.22;;
50976;SDS011;36992;48.200;12.418;2023-04-25T03:45:09;0.70;;;0.30;;
50976;SDS011;36992;48.200;12.418;2023-04-25T03:47:36;1.50;;;0.40;;
50976;SDS011;36992;48.200;12.418;2023-04-25T03:50:03;1.80;;;0.32;;
50976;SDS011;36992;48.200;12.418;2023-04-25T03:52:29;1.38;;;0.30;;
50976;SDS011;36992;48.200;12.418;2023-04-25T03:54:56;0.60;;;0.30;;
50976;SDS011;36992;48.200;12.418;2023-04-25T03:57:24;0.77;;;0.40;;
50976;SDS011;36992;48.200;12.418;2023-04-25T03:59:50;1.10;;;0.30;;
50976;SDS011;36992;48.200;12.418;2023-04-25T04:02:17;1.10;;;0.30;;
50976;SDS011;36992;48.200;12.418;2023-04-25T04:04:43;1.05;;;0.38;;
50976;SDS011;36992;48.200;12.418;2023-04-25T04:07:10;0.70;;;0.30;;
50976;SDS011;36992;48.200;12.418;2023-04-25T04:09:37;0.55;;;0.22;;
50976;SDS011;36992;48.200;12.418;2023-04-25T04:12:03;0.85;;;0.30;;
50976;SDS011;36992;48.200;12.418;2023-04-25T04:14:32;1.48;;;0.30;;
50976;SDS011;36992;48.200;12.418;2023-04-25T04:16:58;1.50;;;0.38;;
50976;SDS011;36992;48.200;12.418;2023-04-25T04:19:25;1.25;;;0.40;;
50976;SDS011;36992;48.200;12.418;2023-04-25T04:21:52;2.08;;;0.35;;
50976;SDS011;36992;48.200;12.418;2023-04-25T04:24:18;1.23;;;0.50;;
50976;SDS011;36992;48.200;12.418;2023-04-25T04:26:45;1.35;;;0.30;;
50976;SDS011;36992;48.200;12.418;2023-04-25T04:29:11;2.17;;;0.40;;
50976;SDS011;36992;48.200;12.418;2023-04-25T04:31:47;1.25;;;0.50;;
50976;SDS011;36992;48.200;12.418;2023-04-25T04:34:14;0.85;;;0.38;;
50976;SDS011;36992;48.200;12.418;2023-04-25T04:36:41;1.42;;;0.32;;
50976;SDS011;36992;48.200;12.418;2023-04-25T04:39:08;1.52;;;0.50;;
50976;SDS011;36992;48.200;12.418;2023-04-25T04:41:36;1.70;;;0.50;;
50976;SDS011;36992;48.200;12.418;2023-04-25T04:44:02;0.93;;;0.35;;
50976;SDS011;36992;48.200;12.418;2023-04-25T04:46:29;1.52;;;0.57;;
50976;SDS011;36992;48.200;12.418;2023-04-25T04:48:57;2.30;;;0.68;;
50976;SDS011;36992;48.200;12.418;2023-04-25T04:51:24;1.40;;;0.68;;
50976;SDS011;36992;48.200;12.418;2023-04-25T04:53:50;0.90;;;0.30;;
50976;SDS011;36992;48.200;12.418;2023-04-25T04:56:17;1.88;;;0.57;;
50976;SDS011;36992;48.200;12.418;2023-04-25T04:58:45;1.35;;;0.40;;
50976;SDS011;36992;48.200;12.418;2023-04-25T05:01:14;3.78;;;0.40;;
50976;SDS011;36992;48.200;12.418;2023-04-25T05:03:41;1.75;;;0.40;;
50976;SDS011;36992;48.200;12.418;2023-04-25T05:06:08;2.13;;;0.50;;
50976;SDS011;36992;48.200;12.418;2023-04-25T05:08:36;1.83;;;0.80;;
50976;SDS011;36992;48.200;12.418;2023-04-25T05:11:02;2.92;;;0.60;;
50976;SDS011;36992;48.200;12.418;2023-04-25T05:13:29;2.00;;;0.63;;
50976;SDS011;36992;48.200;12.418;2023-04-25T05:15:55;2.78;;;0.75;;
50976;SDS011;36992;48.200;12.418;2023-04-25T05:18:22;1.20;;;0.40;;
50976;SDS011;36992;48.200;12.418;2023-04-25T05:20:49;2.78;;;0.60;;
50976;SDS011;36992;48.200;12.418;2023-04-25T05:23:17;2.78;;;0.90;;
50976;SDS011;36992;48.200;12.418;2023-04-25T05:25:43;1.70;;;0.80;;
50976;SDS011;36992;48.200;12.418;2023-04-25T05:28:10;5.57;;;0.55;;
50976;SDS011;36992;48.200;12.418;2023-04-25T05:30:38;1.45;;;0.38;;
50976;SDS011;36992;48.200;12.418;2023-04-25T05:33:05;1.60;;;0.50;;
50976;SDS011;36992;48.200;12.418;2023-04-25T05:35:32;2.50;;;0.50;;
50976;SDS011;36992;48.200;12.418;2023-04-25T05:37:58;6.43;;;0.82;;
50976;SDS011;36992;48.200;12.418;2023-04-25T05:40:26;1.42;;;0.60;;
50976;SDS011;36992;48.200;12.418;2023-04-25T05:42:53;3.08;;;0.43;;
50976;SDS011;36992;48.200;12.418;2023-04-25T05:45:19;1.45;;;0.30;;
50976;SDS011;36992;48.200;12.418;2023-04-25T05:47:46;1.70;;;0.43;;
50976;SDS011;36992;48.200;12.418;2023-04-25T05:50:13;0.90;;;0.30;;
50976;SDS011;36992;48.200;12.418;2023-04-25T05:52:39;1.95;;;0.38;;
50976;SDS011;36992;48.200;12.418;2023-04-25T05:55:06;1.85;;;0.30;;
50976;SDS011;36992;48.200;12.418;2023-04-25T05:57:34;0.50;;;0.20;;
50976;SDS011;36992;48.200;12.418;2023-04-25T06:00:01;1.48;;;0.30;;
50976;SDS011;36992;48.200;12.418;2023-04-25T06:02:28;0.57;;;0.20;;
50976;SDS011;36992;48.200;12.418;2023-04-25T06:04:54;4.32;;;0.32;;
50976;SDS011;36992;48.200;12.418;2023-04-25T06:07:21;1.13;;;0.30;;
50976;SDS011;36992;48.200;12.418;2023-04-25T06:09:47;1.40;;;0.30;;
50976;SDS011;36992;48.200;12.418;2023-04-25T06:12:14;0.90;;;0.20;;
50976;SDS011;36992;48.200;12.418;2023-04-25T06:14:42;5.75;;;1.40;;
50976;SDS011;36992;48.200;12.418;2023-04-25T06:17:09;2.90;;;0.30;;
50976;SDS011;36992;48.200;12.418;2023-04-25T06:19:35;1.23;;;0.20;;
50976;SDS011;36992;48.200;12.418;2023-04-25T06:22:02;0.80;;;0.60;;
50976;SDS011;36992;48.200;12.418;2023-04-25T06:24:29;2.38;;;0.30;;
50976;SDS011;36992;48.200;12.418;2023-04-25T06:26:55;1.38;;;0.30;;
50976;SDS011;36992;48.200;12.418;2023-04-25T06:29:22;0.55;;;0.20;;
50976;SDS011;36992;48.200;12.418;2023-04-25T06:31:49;0.98;;;0.30;;
50976;SDS011;36992;48.200;12.418;2023-04-25T06:34:16;1.35;;;0.28;;
50976;SDS011;36992;48.200;12.418;2023-04-25T06:36:42;1.85;;;0.30;;
50976;SDS011;36992;48.200;12.418;2023-04-25T06:39:10;0.60;;;0.28;;
50976;SDS011;36992;48.200;12.418;2023-04-25T06:41:36;0.80;;;0.52;;
50976;SDS011;36992;48.200;12.418;2023-04-25T06:44:03;1.13;;;0.40;;
50976;SDS011;36992;48.200;12.418;2023-04-25T06:46:30;1.25;;;0.40;;
50976;SDS011;36992;48.200;12.418;2023-04-25T06:48:57;1.73;;;0.30;;
50976;SDS011;36992;48.200;12.418;2023-04-25T06:51:24;3.92;;;0.70;;
50976;SDS011;36992;48.200;12.418;2023-04-25T06:53:53;2.35;;;0.50;;
50976;SDS011;36992;48.200;12.418;2023-04-25T06:56:20;2.00;;;0.40;;
50976;SDS011;36992;48.200;12.418;2023-04-25T06:58:47;1.90;;;0.30;;
50976;SDS011;36992;48.200;12.418;2023-04-25T07:01:13;3.45;;;0.38;;
50976;SDS011;36992;48.200;12.418;2023-04-25T07:03:40;1.60;;;0.50;;
50976;SDS011;36992;48.200;12.418;2023-04-25T07:06:08;1.73;;;0.40;;
50976;SDS011;36992;48.200;12.418;2023-04-25T07:08:34;1.13;;;0.40;;
50976;SDS011;36992;48.200;12.418;2023-04-25T07:11:01;2.70;;;0.30;;
50976;SDS011;36992;48.200;12.418;2023-04-25T07:13:27;4.00;;;1.40;;
50976;SDS011;36992;48.200;12.418;2023-04-25T07:15:54;1.52;;;0.40;;
50976;SDS011;36992;48.200;12.418;2023-04-25T07:18:21;5.65;;;0.55;;
50976;SDS011;36992;48.200;12.418;2023-04-25T07:20:47;3.40;;;0.70;;
50976;SDS011;36992;48.200;12.418;2023-04-25T07:23:15;4.50;;;0.50;;
50976;SDS011;36992;48.200;12.418;2023-04-25T07:25:42;2.53;;;0.50;;
50976;SDS011;36992;48.200;12.418;2023-04-25T07:28:08;1.48;;;0.38;;
50976;SDS011;36992;48.200;12.418;2023-04-25T07:30:35;1.58;;;0.30;;
50976;SDS011;36992;48.200;12.418;2023-04-25T07:33:01;3.50;;;0.50;;
50976;SDS011;36992;48.200;12.418;2023-04-25T07:35:28;3.83;;;0.57;;
50976;SDS011;36992;48.200;12.418;2023-04-25T07:37:55;7.70;;;1.70;;
50976;SDS011;36992;48.200;12.418;2023-04-25T07:40:22;4.57;;;1.23;;
50976;SDS011;36992;48.200;12.418;2023-04-25T07:42:49;3.90;;;1.50;;
50976;SDS011;36992;48.200;12.418;2023-04-25T07:45:16;7.05;;;2.55;;
50976;SDS011;36992;48.200;12.418;2023-04-25T07:47:42;9.65;;;3.00;;
50976;SDS011;36992;48.200;12.418;2023-04-25T07:50:10;4.03;;;1.27;;
50976;SDS011;36992;48.200;12.418;2023-04-25T07:52:36;17.20;;;6.82;;
50976;SDS011;36992;48.200;12.418;2023-04-25T07:55:03;10.32;;;4.55;;
50976;SDS011;36992;48.200;12.418;2023-04-25T07:57:32;12.40;;;4.38;;
50976;SDS011;36992;48.200;12.418;2023-04-25T07:59:58;15.30;;;5.72;;
50976;SDS011;36992;48.200;12.418;2023-04-25T08:02:25;18.67;;;6.95;;
50976;SDS011;36992;48.200;12.418;2023-04-25T08:04:53;6.45;;;2.75;;
50976;SDS011;36992;48.200;12.418;2023-04-25T08:07:19;12.98;;;4.90;;
50976;SDS011;36992;48.200;12.418;2023-04-25T08:09:46;9.27;;;4.07;;
50976;SDS011;36992;48.200;12.418;2023-04-25T08:12:13;7.95;;;3.13;;
50976;SDS011;36992;48.200;12.418;2023-04-25T08:14:41;11.43;;;6.30;;
50976;SDS011;36992;48.200;12.418;2023-04-25T08:17:07;4.47;;;1.70;;
50976;SDS011;36992;48.200;12.418;2023-04-25T08:19:34;2.30;;;0.77;;
50976;SDS011;36992;48.200;12.418;2023-04-25T08:22:00;1.83;;;0.50;;
50976;SDS011;36992;48.200;12.418;2023-04-25T08:24:27;0.95;;;0.35;;
50976;SDS011;36992;48.200;12.418;2023-04-25T08:26:53;1.13;;;0.30;;
50976;SDS011;36992;48.200;12.418;2023-04-25T08:29:20;0.88;;;0.50;;
50976;SDS011;36992;48.200;12.418;2023-04-25T08:31:50;1.17;;;0.50;;
50976;SDS011;36992;48.200;12.418;2023-04-25T08:34:17;3.08;;;0.40;;
50976;SDS011;36992;48.200;12.418;2023-04-25T08:36:45;1.50;;;0.40;;
50976;SDS011;36992;48.200;12.418;2023-04-25T08:39:11;1.25;;;0.40;;
50976;SDS011;36992;48.200;12.418;2023-04-25T08:41:38;1.00;;;0.35;;
50976;SDS011;36992;48.200;12.418;2023-04-25T08:44:06;0.50;;;0.20;;
50976;SDS011;36992;48.200;12.418;2023-04-25T08:46:35;1.52;;;0.30;;
50976;SDS011;36992;48.200;12.418;2023-04-25T08:49:05;1.17;;;0.22;;
50976;SDS011;36992;48.200;12.418;2023-04-25T08:51:34;0.43;;;0.20;;
50976;SDS011;36992;48.200;12.418;2023-04-25T08:54:07;8.10;;;0.45;;
50976;SDS011;36992;48.200;12.418;2023-04-25T08:56:35;1.25;;;0.30;;
50976;SDS011;36992;48.200;12.418;2023-04-25T08:59:03;1.38;;;0.32;;
50976;SDS011;36992;48.200;12.418;2023-04-25T09:01:32;0.93;;;0.30;;
50976;SDS011;36992;48.200;12.418;2023-04-25T09:04:00;1.42;;;0.22;;
50976;SDS011;36992;48.200;12.418;2023-04-25T09:06:28;2.22;;;0.40;;
50976;SDS011;36992;48.200;12.418;2023-04-25T09:08:55;1.90;;;0.40;;
50976;SDS011;36992;48.200;12.418;2023-04-25T09:11:28;1.30;;;0.40;;
50976;SDS011;36992;48.200;12.418;2023-04-25T09:14:09;1.30;;;0.30;;
50976;SDS011;36992;48.200;12.418;2023-04-25T09:16:50;0.50;;;0.20;;
50976;SDS011;36992;48.200;12.418;2023-04-25T09:19:25;1.80;;;0.30;;
50976;SDS011;36992;48.200;12.418;2023-04-25T09:21:55;2.20;;;0.30;;
50976;SDS011;36992;48.200;12.418;2023-04-25T09:24:32;3.30;;;0.28;;
50976;SDS011;36992;48.200;12.418;2023-04-25T09:27:02;1.55;;;0.30;;
50976;SDS011;36992;48.200;12.418;2023-04-25T09:29:30;1.00;;;0.22;;
50976;SDS011;36992;48.200;12.418;2023-04-25T09:32:10;0.77;;;0.30;;
50976;SDS011;36992;48.200;12.418;2023-04-25T09:34:41;0.90;;;0.30;;
50976;SDS011;36992;48.200;12.418;2023-04-25T09:37:11;1.90;;;0.43;;
50976;SDS011;36992;48.200;12.418;2023-04-25T09:39:38;1.05;;;0.30;;
50976;SDS011;36992;48.200;12.418;2023-04-25T09:42:05;2.38;;;0.47;;
50976;SDS011;36992;48.200;12.418;2023-04-25T09:44:32;3.05;;;0.98;;
50976;SDS011;36992;48.200;12.418;2023-04-25T09:46:58;1.10;;;0.40;;
50976;SDS011;36992;48.200;12.418;2023-04-25T09:49:25;1.20;;;0.38;;
50976;SDS011;36992;48.200;12.418;2023-04-25T09:51:56;1.55;;;0.52;;
50976;SDS011;36992;48.200;12.418;2023-04-25T09:54:25;1.50;;;0.32;;
50976;SDS011;36992;48.200;12.418;2023-04-25T09:56:52;1.42;;;0.40;;
50976;SDS011;36992;48.200;12.418;2023-04-25T09:59:19;1.00;;;0.30;;
50976;SDS011;36992;48.200;12.418;2023-04-25T10:01:47;1.23;;;0.30;;
50976;SDS011;36992;48.200;12.418;2023-04-25T10:04:15;0.82;;;0.30;;
50976;SDS011;36992;48.200;12.418;2023-04-25T10:06:46;1.45;;;0.40;;
50976;SDS011;36992;48.200;12.418;2023-04-25T10:09:15;0.85;;;0.30;;
50976;SDS011;36992;48.200;12.418;2023-04-25T10:11:44;2.63;;;0.40;;
50976;SDS011;36992;48.200;12.418;2023-04-25T10:14:12;2.42;;;0.25;;
50976;SDS011;36992;48.200;12.418;2023-04-25T10:16:40;1.50;;;0.60;;
50976;SDS011;36992;48.200;12.418;2023-04-25T10:19:08;2.70;;;0.40;;
50976;SDS011;36992;48.200;12.418;2023-04-25T10:21:35;0.88;;;0.45;;
50976;SDS011;36992;48.200;12.418;2023-04-25T10:24:10;2.40;;;0.57;;
50976;SDS011;36992;48.200;12.418;2023-04-25T10:26:38;3.22;;;0.40;;
50976;SDS011;36992;48.200;12.418;2023-04-25T10:29:06;2.30;;;0.40;;
50976;SDS011;36992;48.200;12.418;2023-04-25T10:31:32;1.00;;;0.28;;
50976;SDS011;36992;48.200;12.418;2023-04-25T10:33:59;0.65;;;0.40;;
50976;SDS011;36992;48.200;12.418;2023-04-25T10:36:26;0.95;;;0.25;;
50976;SDS011;36992;48.200;12.418;2023-04-25T10:38:58;0.77;;;0.28;;
50976;SDS011;36992;48.200;12.418;2023-04-25T10:41:32;1.13;;;0.45;;
50976;SDS011;36992;48.200;12.418;2023-04-25T10:44:13;1.13;;;0.30;;
50976;SDS011;36992;48.200;12.418;2023-04-25T10:46:41;1.35;;;0.50;;
50976;SDS011;36992;48.200;12.418;2023-04-25T10:49:10;2.40;;;0.63;;
50976;SDS011;36992;48.200;12.418;2023-04-25T10:51:36;1.25;;;0.20;;
50976;SDS011;36992;48.200;12.418;2023-04-25T10:54:03;0.88;;;0.22;;
50976;SDS011;36992;48.200;12.418;2023-04-25T10:56:31;1.17;;;0.25;;
50976;SDS011;36992;48.200;12.418;2023-04-25T10:59:07;1.00;;;0.30;;
50976;SDS011;36992;48.200;12.418;2023-04-25T11:01:37;0.47;;;0.20;;
50976;SDS011;36992;48.200;12.418;2023-04-25T11:04:05;1.05;;;0.28;;
50976;SDS011;36992;48.200;12.418;2023-04-25T11:06:35;0.85;;;0.20;;
50976;SDS011;36992;48.200;12.418;2023-04-25T11:09:16;2.67;;;0.60;;
50976;SDS011;36992;48.200;12.418;2023-04-25T11:11:53;2.17;;;0.35;;
50976;SDS011;36992;48.200;12.418;2023-04-25T11:14:20;2.03;;;0.30;;
50976;SDS011;36992;48.200;12.418;2023-04-25T11:16:48;0.60;;;0.20;;
50976;SDS011;36992;48.200;12.418;2023-04-25T11:19:19;0.75;;;0.25;;
50976;SDS011;36992;48.200;12.418;2023-04-25T11:21:46;0.75;;;0.22;;
50976;SDS011;36992;48.200;12.418;2023-04-25T11:24:12;0.77;;;0.30;;
50976;SDS011;36992;48.200;12.418;2023-04-25T11:26:41;0.70;;;0.20;;
50976;SDS011;36992;48.200;12.418;2023-04-25T11:29:07;1.10;;;0.30;;
50976;SDS011;36992;48.200;12.418;2023-04-25T11:31:34;1.58;;;0.30;;
50976;SDS011;36992;48.200;12.418;2023-04-25T11:34:02;1.98;;;0.40;;
50976;SDS011;36992;48.200;12.418;2023-04-25T11:36:28;1.75;;;0.20;;
50976;SDS011;36992;48.200;12.418;2023-04-25T11:38:55;1.67;;;0.35;;
50976;SDS011;36992;48.200;12.418;2023-04-25T11:41:22;1.40;;;0.40;;
50976;SDS011;36992;48.200;12.418;2023-04-25T11:43:48;1.30;;;0.30;;
50976;SDS011;36992;48.200;12.418;2023-04-25T11:46:17;1.30;;;0.50;;
50976;SDS011;36992;48.200;12.418;2023-04-25T11:48:45;2.22;;;0.60;;
50976;SDS011;36992;48.200;12.418;2023-04-25T11:51:14;1.15;;;0.40;;
50976;SDS011;36992;48.200;12.418;2023-04-25T11:53:40;1.40;;;0.30;;
50976;SDS011;36992;48.200;12.418;2023-04-25T11:56:09;2.47;;;0.30;;
50976;SDS011;36992;48.200;12.418;2023-04-25T12:01:24;1.70;;;0.38;;
50976;SDS011;36992;48.200;12.418;2023-04-25T12:03:52;1.85;;;0.55;;
50976;SDS011;36992;48.200;12.418;2023-04-25T12:06:20;0.88;;;0.20;;
50976;SDS011;36992;48.200;12.418;2023-04-25T12:08:58;1.38;;;0.30;;
50976;SDS011;36992;48.200;12.418;2023-04-25T12:11:26;1.92;;;0.40;;
50976;SDS011;36992;48.200;12.418;2023-04-25T12:13:52;1.58;;;0.32;;
50976;SDS011;36992;48.200;12.418;2023-04-25T12:16:19;1.40;;;0.40;;
50976;SDS011;36992;48.200;12.418;2023-04-25T12:18:45;1.42;;;0.73;;
50976;SDS011;36992;48.200;12.418;2023-04-25T12:21:12;2.80;;;0.73;;
50976;SDS011;36992;48.200;12.418;2023-04-25T12:23:39;2.20;;;0.55;;
50976;SDS011;36992;48.200;12.418;2023-04-25T12:26:06;1.75;;;0.55;;
50976;SDS011;36992;48.200;12.418;2023-04-25T12:28:35;3.28;;;0.60;;
50976;SDS011;36992;48.200;12.418;2023-04-25T12:31:17;0.93;;;0.40;;
50976;SDS011;36992;48.200;12.418;2023-04-25T12:33:43;3.72;;;0.70;;
50976;SDS011;36992;48.200;12.418;2023-04-25T12:36:12;1.33;;;0.35;;
50976;SDS011;36992;48.200;12.418;2023-04-25T12:38:41;0.88;;;0.30;;
50976;SDS011;36992;48.200;12.418;2023-04-25T12:41:08;3.03;;;0.50;;
50976;SDS011;36992;48.200;12.418;2023-04-25T12:43:35;1.52;;;0.65;;
50976;SDS011;36992;48.200;12.418;2023-04-25T12:46:01;0.85;;;0.30;;
50976;SDS011;36992;48.200;12.418;2023-04-25T12:48:28;0.60;;;0.28;;
50976;SDS011;36992;48.200;12.418;2023-04-25T12:50:54;0.47;;;0.20;;
50976;SDS011;36992;48.200;12.418;2023-04-25T12:53:21;0.98;;;0.30;;
50976;SDS011;36992;48.200;12.418;2023-04-25T12:55:50;0.60;;;0.30;;
50976;SDS011;36992;48.200;12.418;2023-04-25T12:58:17;0.70;;;0.28;;
50976;SDS011;36992;48.200;12.418;2023-04-25T13:00:45;1.33;;;0.20;;
50976;SDS011;36992;48.200;12.418;2023-04-25T13:03:12;0.52;;;0.30;;
50976;SDS011;36992;48.200;12.418;2023-04-25T13:05:39;0.82;;;0.15;;
50976;SDS011;36992;48.200;12.418;2023-04-25T13:08:06;0.70;;;0.30;;
50976;SDS011;36992;48.200;12.418;2023-04-25T13:10:33;1.15;;;0.35;;
50976;SDS011;36992;48.200;12.418;2023-04-25T13:13:02;1.70;;;0.30;;
50976;SDS011;36992;48.200;12.418;2023-04-25T13:15:28;1.83;;;0.52;;
50976;SDS011;36992;48.200;12.418;2023-04-25T13:17:55;4.05;;;1.10;;
50976;SDS011;36992;48.200;12.418;2023-04-25T13:20:22;1.80;;;0.50;;
50976;SDS011;36992;48.200;12.418;2023-04-25T13:22:48;2.05;;;0.63;;
50976;SDS011;36992;48.200;12.418;2023-04-25T13:25:15;3.38;;;0.73;;
50976;SDS011;36992;48.200;12.418;2023-04-25T13:27:41;1.58;;;0.60;;
50976;SDS011;36992;48.200;12.418;2023-04-25T13:30:10;1.20;;;0.30;;
50976;SDS011;36992;48.200;12.418;2023-04-25T13:32:37;1.35;;;0.20;;
50976;SDS011;36992;48.200;12.418;2023-04-25T13:35:04;2.35;;;0.30;;
50976;SDS011;36992;48.200;12.418;2023-04-25T13:37:31;1.35;;;0.40;;
50976;SDS011;36992;48.200;12.418;2023-04-25T13:39:58;1.00;;;0.20;;
50976;SDS011;36992;48.200;12.418;2023-04-25T13:42:25;1.80;;;0.40;;
50976;SDS011;36992;48.200;12.418;2023-04-25T13:44:52;1.27;;;0.50;;
50976;SDS011;36992;48.200;12.418;2023-04-25T13:47:20;0.57;;;0.20;;
50976;SDS011;36992;48.200;12.418;2023-04-25T13:49:46;0.77;;;0.28;;
50976;SDS011;36992;48.200;12.418;2023-04-25T13:52:13;0.88;;;0.45;;
50976;SDS011;36992;48.200;12.418;2023-04-25T13:54:39;0.85;;;0.20;;
50976;SDS011;36992;48.200;12.418;2023-04-25T13:57:06;1.05;;;0.30;;
50976;SDS011;36992;48.200;12.418;2023-04-25T13:59:32;2.03;;;0.30;;
50976;SDS011;36992;48.200;12.418;2023-04-25T14:01:59;0.57;;;0.20;;
50976;SDS011;36992;48.200;12.418;2023-04-25T14:04:27;1.27;;;0.20;;
50976;SDS011;36992;48.200;12.418;2023-04-25T14:06:55;0.30;;;0.10;;
50976;SDS011;36992;48.200;12.418;2023-04-25T14:09:21;0.85;;;0.20;;
50976;SDS011;36992;48.200;12.418;2023-04-25T14:11:52;0.68;;;0.22;;
50976;SDS011;36992;48.200;12.418;2023-04-25T14:14:18;1.42;;;0.20;;
50976;SDS011;36992;48.200;12.418;2023-04-25T14:16:45;0.40;;;0.10;;
50976;SDS011;36992;48.200;12.418;2023-04-25T14:19:13;0.20;;;0.10;;
50976;SDS011;36992;48.200;12.418;2023-04-25T14:21:41;0.95;;;0.20;;
50976;SDS011;36992;48.200;12.418;2023-04-25T14:24:07;1.73;;;0.10;;
50976;SDS011;36992;48.200;12.418;2023-04-25T14:26:34;0.75;;;0.20;;
50976;SDS011;36992;48.200;12.418;2023-04-25T14:29:01;0.73;;;0.30;;
50976;SDS011;36992;48.200;12.418;2023-04-25T14:31:28;0.68;;;0.28;;
50976;SDS011;36992;48.200;12.418;2023-04-25T14:33:54;0.88;;;0.20;;
50976;SDS011;36992;48.200;12.418;2023-04-25T14:36:21;2.00;;;0.77;;
50976;SDS011;36992;48.200;12.418;2023-04-25T14:38:48;0.80;;;0.20;;